Time;durP1;ratioP1;P1;durP2;ratioP2;P2;SDS_P1;SDS_P2;PMS_P1;PMS_P2;Temp;Humidity;BMP_temperature;BMP_pressure;BME280_temperature;BME280_humidity;BME280_pressure;Samples;Min_cycle;Max_cycle;Signal;HPM_P1;HPM_P2
2021/12/09 00:01:38;;;;;;;1.65;1.60;;;1.80;99.90;;;;;;5256504;28;20044;-75
2021/12/09 00:04:12;;;;;;;;;;;1.70;99.90;;;;;;5248150;28;20081;-77
2021/12/09 00:06:44;;;;;;;0.70;0.70;;;1.70;99.90;;;;;;5254274;28;19938;-76
2021/12/09 00:09:19;;;;;;;0.50;0.50;;;1.60;99.90;;;;;;5252934;28;20349;-76
2021/12/09 00:11:52;;;;;;;0.70;0.70;;;1.60;99.90;;;;;;5250354;28;20036;-76
2021/12/09 00:14:26;;;;;;;0.52;0.52;;;1.60;99.90;;;;;;5271776;28;20043;-78
2021/12/09 00:17:05;;;;;;;0.50;0.50;;;1.60;99.90;;;;;;5253825;28;20238;-76
2021/12/09 00:19:39;;;;;;;0.80;0.80;;;1.60;99.90;;;;;;5251028;28;20032;-76
2021/12/09 00:22:12;;;;;;;0.60;0.60;;;1.60;99.90;;;;;;5261230;28;20035;-76
2021/12/09 00:24:48;;;;;;;0.80;0.80;;;1.60;99.90;;;;;;5258643;28;20322;-76
2021/12/09 00:27:25;;;;;;;0.75;0.75;;;1.60;99.90;;;;;;5263146;28;20081;-77
2021/12/09 00:29:56;;;;;;;0.50;0.50;;;1.60;99.90;;;;;;5262842;28;20046;-77
2021/12/09 00:32:27;;;;;;;1.00;1.00;;;1.60;99.90;;;;;;5244184;28;20321;-76
2021/12/09 00:35:03;;;;;;;0.80;0.80;;;1.70;99.90;;;;;;5244959;28;20416;-76
2021/12/09 00:37:42;;;;;;;1.13;1.13;;;1.70;99.90;;;;;;5259474;28;20202;-76
2021/12/09 00:40:18;;;;;;;0.70;0.70;;;1.70;99.90;;;;;;5246779;28;20028;-76
2021/12/09 00:42:50;;;;;;;1.73;1.63;;;1.70;99.90;;;;;;5251267;28;20122;-77
2021/12/09 00:45:24;;;;;;;0.90;0.90;;;1.80;99.90;;;;;;5273912;28;20036;-75
2021/12/09 00:47:58;;;;;;;0.50;0.50;;;1.80;99.90;;;;;;5258301;28;20032;-76
2021/12/09 00:50:32;;;;;;;0.50;0.50;;;1.90;99.90;;;;;;5262015;28;20320;-77
2021/12/09 00:53:03;;;;;;;0.47;0.47;;;1.90;99.90;;;;;;5246740;28;20333;-77
2021/12/09 00:55:34;;;;;;;0.60;0.60;;;1.80;99.90;;;;;;5264988;28;20039;-76
2021/12/09 00:58:07;;;;;;;1.33;1.33;;;1.80;99.90;;;;;;5251925;28;20052;-76
2021/12/09 01:00:40;;;;;;;1.45;1.35;;;1.80;99.90;;;;;;5262549;28;20073;-76
2021/12/09 01:03:12;;;;;;;0.70;0.70;;;1.80;99.90;;;;;;5243205;28;20058;-76
2021/12/09 01:05:44;;;;;;;1.38;1.38;;;1.80;99.90;;;;;;5242893;28;20082;-76
2021/12/09 01:08:16;;;;;;;1.10;1.10;;;1.70;99.90;;;;;;5225186;28;20187;-76
2021/12/09 01:10:48;;;;;;;0.75;0.75;;;1.70;99.90;;;;;;5237473;28;20288;-76
2021/12/09 01:13:21;;;;;;;0.68;0.68;;;1.70;99.90;;;;;;5235154;28;20308;-78
2021/12/09 01:15:52;;;;;;;0.50;0.50;;;1.60;99.90;;;;;;5250674;28;20273;-75
2021/12/09 01:18:23;;;;;;;0.43;0.43;;;1.60;99.90;;;;;;5255206;28;20581;-76
2021/12/09 01:20:57;;;;;;;0.60;0.60;;;1.60;99.90;;;;;;5245500;28;20040;-76
2021/12/09 01:23:28;;;;;;;0.50;0.50;;;1.60;99.90;;;;;;5263581;28;20046;-76
2021/12/09 01:26:03;;;;;;;3.10;1.63;;;1.60;99.90;;;;;;5262554;28;20636;-77
2021/12/09 01:28:47;;;;;;;0.40;0.40;;;1.60;99.90;;;;;;5260672;28;20039;-76
2021/12/09 01:31:29;;;;;;;0.57;0.57;;;1.70;99.90;;;;;;5242657;28;20668;-76
2021/12/09 01:34:03;;;;;;;0.50;0.50;;;1.70;99.90;;;;;;5253678;28;20270;-78
2021/12/09 01:36:37;;;;;;;;;;;1.70;99.90;;;;;;5263941;28;20019;-76
2021/12/09 01:39:12;;;;;;;1.10;1.03;;;1.60;99.90;;;;;;5261270;28;19920;-76
2021/12/09 01:41:42;;;;;;;0.52;0.52;;;1.60;99.90;;;;;;5256302;28;20077;-77
2021/12/09 01:44:14;;;;;;;0.68;0.68;;;1.60;99.90;;;;;;5261474;28;20036;-77
2021/12/09 01:46:45;;;;;;;1.25;1.15;;;1.60;99.90;;;;;;5264306;28;20034;-76
2021/12/09 01:49:21;;;;;;;1.20;1.20;;;1.60;99.90;;;;;;5259633;28;20118;-77
2021/12/09 01:51:57;;;;;;;1.98;1.83;;;1.50;99.90;;;;;;5263302;28;20333;-76
2021/12/09 01:54:30;;;;;;;0.50;0.50;;;1.40;99.90;;;;;;5277800;28;20036;-76
2021/12/09 01:57:02;;;;;;;0.50;0.50;;;1.30;99.90;;;;;;5262585;28;20135;-76
2021/12/09 01:59:34;;;;;;;7.30;2.30;;;1.20;99.90;;;;;;5262967;28;20031;-76
2021/12/09 02:02:05;;;;;;;0.73;0.73;;;1.20;99.90;;;;;;5277691;28;20089;-76
2021/12/09 02:04:36;;;;;;;0.82;0.82;;;1.10;99.90;;;;;;5253353;28;20036;-77
2021/12/09 02:07:09;;;;;;;0.60;0.60;;;1.00;99.90;;;;;;5264985;28;20023;-76
2021/12/09 02:09:43;;;;;;;1.65;1.60;;;0.90;99.90;;;;;;5248719;28;20085;-76
2021/12/09 02:12:16;;;;;;;0.93;0.93;;;0.90;99.90;;;;;;5255242;28;20342;-77
2021/12/09 02:14:47;;;;;;;1.95;1.85;;;0.80;99.90;;;;;;5256005;28;20036;-77
2021/12/09 02:17:20;;;;;;;0.60;0.60;;;0.80;99.90;;;;;;5261620;28;20043;-76
2021/12/09 02:19:58;;;;;;;1.50;1.00;;;0.80;99.90;;;;;;5244666;28;20051;-76
2021/12/09 02:22:34;;;;;;;0.88;0.88;;;0.80;99.90;;;;;;5265576;28;20171;-76
2021/12/09 02:25:06;;;;;;;0.88;0.88;;;0.70;99.90;;;;;;5256498;28;20197;-76
2021/12/09 02:27:39;;;;;;;2.75;1.88;;;0.70;99.90;;;;;;5244673;28;20044;-76
2021/12/09 02:30:16;;;;;;;3.53;2.22;;;0.70;99.90;;;;;;5262297;28;20039;-76
2021/12/09 02:32:51;;;;;;;1.02;1.02;;;0.70;99.90;;;;;;5260973;28;20036;-76
2021/12/09 02:35:24;;;;;;;1.85;1.75;;;0.60;99.90;;;;;;5260626;28;20027;-76
2021/12/09 02:37:58;;;;;;;1.23;1.23;;;0.70;99.90;;;;;;5266628;28;20035;-76
2021/12/09 02:40:33;;;;;;;0.60;0.60;;;0.60;99.90;;;;;;5268368;28;20034;-78
2021/12/09 02:43:08;;;;;;;0.77;0.77;;;0.60;99.90;;;;;;5253864;28;20073;-76
2021/12/09 02:45:51;;;;;;;0.50;0.50;;;0.60;99.90;;;;;;5252187;28;20019;-75
2021/12/09 02:48:24;;;;;;;0.60;0.60;;;0.60;99.90;;;;;;5246968;28;20343;-76
2021/12/09 02:51:01;;;;;;;1.70;1.60;;;0.50;99.90;;;;;;5239039;28;20322;-75
2021/12/09 02:53:36;;;;;;;2.75;2.63;;;0.50;99.90;;;;;;5244768;28;20037;-75
2021/12/09 02:56:07;;;;;;;0.88;0.88;;;0.60;99.90;;;;;;5258620;28;20031;-77
2021/12/09 02:58:39;;;;;;;0.70;0.70;;;0.50;99.90;;;;;;5244712;28;20036;-76
2021/12/09 03:01:18;;;;;;;0.70;0.70;;;0.50;99.90;;;;;;5245476;28;20024;-75
2021/12/09 03:03:56;;;;;;;0.90;0.90;;;0.50;99.90;;;;;;5257835;28;20132;-76
2021/12/09 03:06:40;;;;;;;1.07;1.07;;;0.40;99.90;;;;;;5247750;28;20153;-76
2021/12/09 03:09:20;;;;;;;1.10;1.10;;;0.50;99.90;;;;;;5246134;28;20399;-76
2021/12/09 03:11:54;;;;;;;0.50;0.50;;;0.50;99.90;;;;;;5257778;28;20598;-76
2021/12/09 03:14:26;;;;;;;1.87;1.80;;;0.50;99.90;;;;;;5262298;28;20024;-77
2021/12/09 03:17:00;;;;;;;1.58;1.58;;;0.50;99.90;;;;;;5258309;28;20059;-76
2021/12/09 03:19:33;;;;;;;1.00;1.00;;;0.50;99.90;;;;;;5246618;28;20032;-76
2021/12/09 03:22:04;;;;;;;1.15;1.15;;;0.50;99.90;;;;;;5250435;28;20036;-77
2021/12/09 03:24:38;;;;;;;1.23;1.23;;;0.50;99.90;;;;;;5265754;28;20048;-76
2021/12/09 03:27:09;;;;;;;1.65;1.55;;;0.50;99.90;;;;;;5265738;28;20020;-78
2021/12/09 03:29:43;;;;;;;0.95;0.77;;;0.50;99.90;;;;;;5265794;28;20118;-75
2021/12/09 03:32:18;;;;;;;0.90;0.90;;;0.50;99.90;;;;;;5248857;28;20039;-75
2021/12/09 03:34:52;;;;;;;1.17;1.17;;;0.50;99.90;;;;;;5260351;28;20031;-75
2021/12/09 03:37:27;;;;;;;1.02;1.00;;;0.50;99.90;;;;;;5229901;28;20320;-76
2021/12/09 03:40:00;;;;;;;2.67;2.50;;;0.50;99.90;;;;;;5246781;28;20036;-77
2021/12/09 03:42:38;;;;;;;1.73;1.70;;;0.50;99.90;;;;;;5261097;28;20039;-77
2021/12/09 03:45:11;;;;;;;2.67;2.53;;;0.50;99.90;;;;;;5262455;28;20028;-77
2021/12/09 03:47:45;;;;;;;0.85;0.85;;;0.50;99.90;;;;;;5264739;28;20043;-76
2021/12/09 03:50:19;;;;;;;1.05;1.05;;;0.40;99.90;;;;;;5263862;28;20326;-77
2021/12/09 03:52:52;;;;;;;0.82;0.82;;;0.50;99.90;;;;;;5251059;28;20040;-76
2021/12/09 03:55:23;;;;;;;1.83;1.73;;;0.40;99.90;;;;;;5264178;28;20036;-75
2021/12/09 03:57:56;;;;;;;1.98;1.88;;;0.50;99.90;;;;;;5281779;28;20118;-76
2021/12/09 04:00:30;;;;;;;3.45;2.25;;;0.50;99.90;;;;;;5265334;28;20038;-76
2021/12/09 04:03:03;;;;;;;1.60;1.50;;;0.50;99.90;;;;;;5265379;28;20104;-76
2021/12/09 04:05:35;;;;;;;1.30;1.25;;;0.50;99.90;;;;;;5254189;28;20227;-76
2021/12/09 04:08:10;;;;;;;2.00;1.90;;;0.50;99.90;;;;;;5260966;28;20184;-75
2021/12/09 04:10:42;;;;;;;0.50;0.50;;;0.50;99.90;;;;;;5261237;28;20677;-75
2021/12/09 04:13:13;;;;;;;1.48;1.48;;;0.50;99.90;;;;;;5263344;28;20051;-75
2021/12/09 04:15:44;;;;;;;0.50;0.50;;;0.50;99.90;;;;;;5261642;28;20047;-75
2021/12/09 04:18:18;;;;;;;1.50;1.50;;;0.50;99.90;;;;;;5266070;28;20252;-75
2021/12/09 04:20:52;;;;;;;;;;;0.50;99.90;;;;;;5257324;28;20206;-75
2021/12/09 04:23:25;;;;;;;0.90;0.90;;;0.50;99.90;;;;;;5243769;28;19919;-75
2021/12/09 04:25:58;;;;;;;1.80;1.70;;;0.50;99.90;;;;;;5254850;28;20077;-75
2021/12/09 04:28:30;;;;;;;1.20;1.17;;;0.50;99.90;;;;;;5263133;28;20046;-75
2021/12/09 04:31:04;;;;;;;2.63;2.53;;;0.50;99.90;;;;;;5241357;28;20055;-75
2021/12/09 04:33:37;;;;;;;1.35;1.25;;;0.50;99.90;;;;;;5228360;28;20040;-74
2021/12/09 04:36:13;;;;;;;0.50;0.50;;;0.50;99.90;;;;;;5254516;28;20047;-75
2021/12/09 04:38:47;;;;;;;3.35;3.15;;;0.50;99.90;;;;;;5259378;28;20036;-75
2021/12/09 04:41:25;;;;;;;0.65;0.65;;;0.50;99.90;;;;;;5295070;27;20085;-75
2021/12/09 04:43:56;;;;;;;0.70;0.70;;;0.50;99.90;;;;;;5285282;28;20091;-75
2021/12/09 04:46:26;;;;;;;2.30;1.55;;;0.50;99.90;;;;;;5298204;27;20051;-77
2021/12/09 04:49:00;;;;;;;0.98;0.98;;;0.40;99.90;;;;;;5287589;27;20031;-75
2021/12/09 04:51:33;;;;;;;1.48;1.38;;;0.50;99.90;;;;;;5287435;27;20558;-75
2021/12/09 04:54:08;;;;;;;1.25;1.25;;;0.50;99.90;;;;;;5306653;27;20255;-77
2021/12/09 04:56:39;;;;;;;1.02;1.02;;;0.50;99.90;;;;;;5302541;27;20035;-74
2021/12/09 04:59:10;;;;;;;1.75;1.67;;;0.50;99.90;;;;;;5287878;27;20236;-75
2021/12/09 05:01:47;;;;;;;1.38;1.35;;;0.50;99.90;;;;;;5287528;27;20038;-76
2021/12/09 05:04:18;;;;;;;0.73;0.73;;;0.50;99.90;;;;;;5294938;27;20126;-75
2021/12/09 05:06:51;;;;;;;0.90;0.90;;;0.50;99.90;;;;;;5258785;27;20023;-75
2021/12/09 05:09:23;;;;;;;0.77;0.77;;;0.60;99.90;;;;;;5282987;27;20102;-76
2021/12/09 05:11:54;;;;;;;1.48;1.38;;;0.50;99.90;;;;;;5285248;27;20034;-77
2021/12/09 05:14:30;;;;;;;2.05;1.95;;;0.50;99.90;;;;;;5286129;27;20023;-76
2021/12/09 05:17:04;;;;;;;2.15;2.05;;;0.50;99.90;;;;;;5287939;27;20096;-77
2021/12/09 05:19:35;;;;;;;0.55;0.55;;;0.50;99.90;;;;;;5284988;28;20027;-76
2021/12/09 05:22:11;;;;;;;0.50;0.50;;;0.60;99.90;;;;;;5289701;27;20246;-79
2021/12/09 05:24:43;;;;;;;0.60;0.60;;;0.60;99.90;;;;;;5305650;27;20027;-76
2021/12/09 05:27:17;;;;;;;0.80;0.80;;;0.70;99.90;;;;;;5267677;28;20176;-79
2021/12/09 05:30:03;;;;;;;1.67;1.60;;;0.70;99.90;;;;;;5274899;27;20039;-75
2021/12/09 05:32:37;;;;;;;1.35;1.35;;;0.70;99.90;;;;;;5284611;27;20046;-75
2021/12/09 05:35:08;;;;;;;1.48;1.40;;;0.60;99.90;;;;;;5298508;27;20023;-75
2021/12/09 05:37:39;;;;;;;2.05;1.95;;;0.60;99.90;;;;;;5291080;27;20038;-76
2021/12/09 05:40:14;;;;;;;0.65;0.65;;;0.70;99.90;;;;;;5299700;27;20363;-76
2021/12/09 05:42:45;;;;;;;0.85;0.85;;;0.70;99.90;;;;;;5243110;28;20509;-75
2021/12/09 05:45:16;;;;;;;2.75;2.53;;;0.70;99.90;;;;;;5240632;28;20046;-74
2021/12/09 05:47:47;;;;;;;0.98;0.98;;;0.70;99.90;;;;;;5249134;28;20055;-75
2021/12/09 05:50:18;;;;;;;0.82;0.82;;;0.70;99.90;;;;;;5256963;28;20040;-75
2021/12/09 05:52:51;;;;;;;1.05;1.05;;;0.80;99.90;;;;;;5256125;28;20036;-74
2021/12/09 05:55:22;;;;;;;0.88;0.88;;;0.70;99.90;;;;;;5249211;28;20028;-75
2021/12/09 05:57:55;;;;;;;1.10;1.10;;;0.60;99.90;;;;;;5253842;28;20090;-74
2021/12/09 06:00:27;;;;;;;1.23;1.23;;;0.60;99.90;;;;;;5253367;28;20044;-74
2021/12/09 06:03:01;;;;;;;1.40;1.38;;;0.70;99.90;;;;;;5243522;28;20031;-74
2021/12/09 06:05:32;;;;;;;1.53;1.47;;;0.70;99.90;;;;;;5234688;28;20501;-74
2021/12/09 06:08:07;;;;;;;0.77;0.77;;;0.60;99.90;;;;;;5259457;28;20050;-74
2021/12/09 06:10:43;;;;;;;1.67;1.58;;;0.60;99.90;;;;;;5239417;28;20053;-74
2021/12/09 06:13:16;;;;;;;0.60;0.60;;;0.60;99.90;;;;;;5250437;28;20059;-74
2021/12/09 06:15:49;;;;;;;0.40;0.40;;;0.60;99.90;;;;;;5247788;28;20089;-74
2021/12/09 06:18:23;;;;;;;0.68;0.68;;;0.70;99.90;;;;;;5262532;28;20059;-74
2021/12/09 06:20:56;;;;;;;0.77;0.77;;;0.70;99.90;;;;;;5264418;28;20383;-74
2021/12/09 06:23:27;;;;;;;0.50;0.50;;;0.60;99.90;;;;;;5262884;28;20648;-74
2021/12/09 06:26:02;;;;;;;0.60;0.60;;;0.60;99.90;;;;;;5266687;28;20032;-75
2021/12/09 06:28:38;;;;;;;1.08;1.08;;;0.60;99.90;;;;;;5245729;28;20310;-75
2021/12/09 06:31:14;;;;;;;1.15;1.15;;;0.60;99.90;;;;;;5246268;28;20163;-75
2021/12/09 06:33:45;;;;;;;0.75;0.75;;;0.60;99.90;;;;;;5257758;28;20230;-75
2021/12/09 06:36:18;;;;;;;0.70;0.70;;;0.60;99.90;;;;;;5258790;28;20040;-75
2021/12/09 06:38:55;;;;;;;0.50;0.50;;;0.60;99.90;;;;;;5245182;28;20032;-75
2021/12/09 06:41:31;;;;;;;2.30;2.17;;;0.60;99.90;;;;;;5263302;28;20594;-74
2021/12/09 06:44:02;;;;;;;0.60;0.60;;;0.60;99.90;;;;;;5266128;28;20286;-74
2021/12/09 06:46:33;;;;;;;0.63;0.63;;;0.60;99.90;;;;;;5279257;27;20021;-74
2021/12/09 06:49:05;;;;;;;0.90;0.90;;;0.60;99.90;;;;;;5289020;27;20400;-75
2021/12/09 06:51:39;;;;;;;1.02;1.02;;;0.70;99.90;;;;;;5265455;28;20044;-74
2021/12/09 06:54:10;;;;;;;0.50;0.50;;;0.70;99.90;;;;;;5294391;27;20027;-75
2021/12/09 06:56:43;;;;;;;0.77;0.77;;;0.70;99.90;;;;;;5297180;27;20068;-76
2021/12/09 06:59:14;;;;;;;0.50;0.50;;;0.70;99.90;;;;;;5268940;28;20044;-74
2021/12/09 07:01:45;;;;;;;1.23;1.23;;;0.70;99.90;;;;;;5279707;28;20043;-74
2021/12/09 07:04:16;;;;;;;0.60;0.60;;;0.70;99.90;;;;;;5282013;28;20086;-75
2021/12/09 07:06:47;;;;;;;1.25;1.23;;;0.70;99.90;;;;;;5276824;28;20355;-75
2021/12/09 07:09:18;;;;;;;1.00;1.00;;;0.80;99.90;;;;;;5264633;28;20027;-75
2021/12/09 07:11:51;;;;;;;0.95;0.95;;;0.90;99.90;;;;;;5270943;28;20027;-75
2021/12/09 07:14:25;;;;;;;0.47;0.47;;;0.90;99.90;;;;;;5247565;28;20092;-75
2021/12/09 07:16:56;;;;;;;0.38;0.38;;;0.90;99.90;;;;;;5263328;28;20471;-75
2021/12/09 07:19:27;;;;;;;1.23;1.23;;;0.90;99.90;;;;;;5267810;27;20099;-75
2021/12/09 07:22:04;;;;;;;0.60;0.60;;;0.90;99.90;;;;;;5262319;28;20511;-75
2021/12/09 07:24:35;;;;;;;0.90;0.90;;;1.00;99.90;;;;;;5262635;28;20048;-75
2021/12/09 07:27:09;;;;;;;0.50;0.50;;;1.00;99.90;;;;;;5264848;28;20700;-76
2021/12/09 07:29:39;;;;;;;1.83;1.73;;;1.00;99.90;;;;;;5279398;28;20027;-76
2021/12/09 07:32:10;;;;;;;0.95;0.95;;;1.10;99.90;;;;;;5282474;28;20039;-74
2021/12/09 07:34:43;;;;;;;0.98;0.98;;;1.10;99.90;;;;;;5285328;27;20054;-75
2021/12/09 07:37:17;;;;;;;0.40;0.40;;;1.10;99.90;;;;;;5264255;28;20099;-74
2021/12/09 07:39:48;;;;;;;0.68;0.68;;;1.20;99.90;;;;;;5270520;28;20038;-74
2021/12/09 07:42:21;;;;;;;0.50;0.50;;;1.20;99.90;;;;;;5271062;27;20040;-75
2021/12/09 07:44:52;;;;;;;0.90;0.90;;;1.20;99.90;;;;;;5283519;27;20031;-75
2021/12/09 07:47:25;;;;;;;0.60;0.60;;;1.20;99.90;;;;;;5293864;27;20480;-75
2021/12/09 07:49:56;;;;;;;0.90;0.90;;;1.30;99.90;;;;;;5289861;27;20023;-75
2021/12/09 07:52:29;;;;;;;1.38;1.35;;;1.30;99.90;;;;;;5273386;28;20255;-74
2021/12/09 07:55:00;;;;;;;0.60;0.60;;;1.40;99.90;;;;;;5293629;27;20161;-75
2021/12/09 07:57:36;;;;;;;1.20;1.20;;;1.40;99.90;;;;;;5294381;27;20023;-75
2021/12/09 08:00:15;;;;;;;1.55;1.45;;;1.40;99.90;;;;;;5283057;27;20022;-75
2021/12/09 08:02:48;;;;;;;0.70;0.70;;;1.40;99.90;;;;;;5300974;27;20034;-75
2021/12/09 08:05:21;;;;;;;0.50;0.50;;;1.40;99.90;;;;;;5305429;27;20103;-78
2021/12/09 08:07:55;;;;;;;0.50;0.50;;;1.40;99.90;;;;;;5300551;27;20019;-77
2021/12/09 08:10:26;;;;;;;1.05;1.05;;;1.40;99.90;;;;;;5284344;28;20095;-76
2021/12/09 08:13:05;;;;;;;1.77;1.67;;;1.30;99.90;;;;;;5271764;27;20024;-75
2021/12/09 08:15:39;;;;;;;0.70;0.70;;;1.20;99.90;;;;;;5288895;27;20458;-77
2021/12/09 08:20:56;;;;;;;0.88;0.88;;;1.20;99.90;;;;;;5278172;27;20027;-77
2021/12/09 08:23:32;;;;;;;1.13;1.13;;;1.20;99.90;;;;;;5277925;27;20031;-76
2021/12/09 08:26:03;;;;;;;1.20;1.20;;;1.30;99.90;;;;;;5261491;27;20079;-78
2021/12/09 08:28:33;;;;;;;0.50;0.50;;;1.40;99.90;;;;;;5293275;27;20066;-78
2021/12/09 08:31:06;;;;;;;0.90;0.90;;;1.30;99.90;;;;;;5275998;27;20066;-78
2021/12/09 08:33:40;;;;;;;2.50;2.40;;;1.40;99.90;;;;;;5315021;27;20027;-76
2021/12/09 08:36:12;;;;;;;2.25;2.15;;;1.40;99.90;;;;;;5304214;27;20035;-77
2021/12/09 08:38:44;;;;;;;0.93;0.93;;;1.40;99.90;;;;;;5314388;27;20082;-77
2021/12/09 08:41:17;;;;;;;0.70;0.70;;;1.40;99.90;;;;;;5294067;27;20439;-77
2021/12/09 08:43:48;;;;;;;0.90;0.90;;;1.30;99.90;;;;;;5306198;27;20034;-78
2021/12/09 08:46:21;;;;;;;0.65;0.65;;;1.20;99.90;;;;;;5305727;27;20347;-77
2021/12/09 08:48:56;;;;;;;1.48;1.45;;;1.20;99.90;;;;;;5304284;27;20419;-77
2021/12/09 08:51:27;;;;;;;0.80;0.80;;;1.20;99.90;;;;;;5304944;27;20213;-78
2021/12/09 08:53:58;;;;;;;0.50;0.50;;;1.30;99.90;;;;;;5295464;27;20030;-77
2021/12/09 08:56:29;;;;;;;1.70;1.60;;;1.40;99.90;;;;;;5273520;27;20316;-76
2021/12/09 08:59:03;;;;;;;0.50;0.50;;;1.40;99.90;;;;;;5284168;27;20034;-78
2021/12/09 09:01:35;;;;;;;0.60;0.60;;;1.40;99.90;;;;;;5286591;27;20539;-78
2021/12/09 09:04:06;;;;;;;1.63;1.52;;;1.40;99.90;;;;;;5299034;27;20039;-78
2021/12/09 09:06:54;;;;;;;0.50;0.50;;;1.40;99.90;;;;;;5300233;27;20084;-76
2021/12/09 09:09:34;;;;;;;0.95;0.95;;;1.50;99.90;;;;;;5281828;27;20026;-78
2021/12/09 09:12:11;;;;;;;0.60;0.60;;;1.40;99.90;;;;;;5273207;27;20031;-77
2021/12/09 09:14:45;;;;;;;0.70;0.70;;;1.40;99.90;;;;;;5285163;27;20027;-78
2021/12/09 09:17:16;;;;;;;;;;;1.60;99.90;;;;;;5265220;28;20322;-77
2021/12/09 09:19:47;;;;;;;0.60;0.60;;;1.70;99.90;;;;;;5293672;27;19959;-78
2021/12/09 09:22:21;;;;;;;1.15;1.15;;;1.80;99.90;;;;;;5274580;27;20322;-77
2021/12/09 09:24:51;;;;;;;0.85;0.85;;;1.70;99.90;;;;;;5288602;27;20031;-78
2021/12/09 09:27:23;;;;;;;0.40;0.40;;;1.70;99.90;;;;;;5299298;27;20038;-78
2021/12/09 09:29:57;;;;;;;1.17;1.13;;;1.80;99.90;;;;;;5284563;27;20023;-77
2021/12/09 09:32:30;;;;;;;0.68;0.68;;;1.60;99.90;;;;;;5283940;27;20063;-77
2021/12/09 09:35:01;;;;;;;0.50;0.50;;;1.60;99.90;;;;;;5314078;27;20026;-77
2021/12/09 09:37:34;;;;;;;0.88;0.88;;;1.80;99.90;;;;;;5323774;27;20023;-77
2021/12/09 09:40:11;;;;;;;0.50;0.50;;;1.80;99.90;;;;;;5286033;27;20076;-77
2021/12/09 09:45:20;;;;;;;0.55;0.55;;;1.80;99.90;;;;;;5287966;27;20376;-77
2021/12/09 09:47:54;;;;;;;0.50;0.50;;;1.80;99.90;;;;;;5253405;28;20381;-78
2021/12/09 09:50:25;;;;;;;1.00;1.00;;;1.80;99.90;;;;;;5299638;27;20489;-82
2021/12/09 09:52:57;;;;;;;0.60;0.60;;;1.90;99.90;;;;;;5300538;28;20046;-81
2021/12/09 09:55:33;;;;;;;0.60;0.60;;;1.90;99.90;;;;;;5266326;28;20056;-82
2021/12/09 09:58:04;;;;;;;0.52;0.52;;;1.90;99.90;;;;;;5277601;28;20028;-79
2021/12/09 10:00:44;;;;;;;0.43;0.43;;;1.90;99.90;;;;;;5292394;28;20030;-79
2021/12/09 10:03:17;;;;;;;0.60;0.60;;;1.90;99.90;;;;;;5285220;27;20039;-79
2021/12/09 10:05:51;;;;;;;0.75;0.75;;;1.90;99.90;;;;;;5325265;27;20050;-81
2021/12/09 10:08:22;;;;;;;0.85;0.85;;;1.90;99.90;;;;;;5314223;27;20042;-79
2021/12/09 10:10:53;;;;;;;0.60;0.60;;;2.00;99.90;;;;;;5315808;27;20043;-78
2021/12/09 10:13:40;;;;;;;0.70;0.70;;;2.10;99.90;;;;;;5291960;28;20031;-82
2021/12/09 10:16:26;;;;;;;0.50;0.50;;;2.00;99.90;;;;;;5300415;28;20041;-80
2021/12/09 10:18:57;;;;;;;0.73;0.73;;;2.00;99.90;;;;;;5298751;27;20084;-79
2021/12/09 10:21:38;;;;;;;1.38;1.38;;;2.00;99.90;;;;;;5279660;28;20039;-78
2021/12/09 10:24:11;;;;;;;2.15;2.05;;;1.90;99.90;;;;;;5296857;27;20034;-82
2021/12/09 10:26:47;;;;;;;2.30;2.20;;;1.90;99.90;;;;;;5283549;28;20068;-77
2021/12/09 10:29:30;;;;;;;2.97;1.65;;;1.80;99.90;;;;;;5268065;28;20529;-78
2021/12/09 10:32:12;;;;;;;1.77;1.75;;;1.80;99.90;;;;;;5286658;28;20259;-76
2021/12/09 10:34:46;;;;;;;0.73;0.73;;;1.80;99.90;;;;;;5269500;28;20027;-79
2021/12/09 10:37:26;;;;;;;1.17;1.15;;;1.60;99.90;;;;;;5299479;28;20032;-78
2021/12/09 10:40:10;;;;;;;0.57;0.57;;;1.60;99.90;;;;;;5278068;28;20069;-78
2021/12/09 10:42:56;;;;;;;0.55;0.55;;;1.50;99.90;;;;;;5229766;28;20036;-78
2021/12/09 10:45:41;;;;;;;1.23;1.23;;;1.50;99.90;;;;;;5249805;28;20028;-77
2021/12/09 10:53:47;;;;;;;0.98;0.98;;;1.50;99.90;;;;;;5250089;28;20024;-78
2021/12/09 10:56:28;;;;;;;0.80;0.80;;;1.60;99.90;;;;;;5260311;28;20024;-77
2021/12/09 10:59:03;;;;;;;0.98;0.98;;;1.60;99.90;;;;;;5249408;28;20042;-78
2021/12/09 11:01:35;;;;;;;1.05;1.05;;;1.60;99.90;;;;;;5272457;28;20086;-77
2021/12/09 11:04:09;;;;;;;0.95;0.95;;;1.70;99.90;;;;;;5266958;28;20040;-77
2021/12/09 11:06:42;;;;;;;0.60;0.60;;;1.70;99.90;;;;;;5251055;28;20054;-78
2021/12/09 11:09:18;;;;;;;0.50;0.50;;;1.80;99.90;;;;;;5260786;28;20063;-76
2021/12/09 11:11:57;;;;;;;1.17;1.17;;;1.80;99.90;;;;;;5258265;28;20027;-77
2021/12/09 11:14:32;;;;;;;1.42;1.33;;;1.80;99.90;;;;;;5256714;28;20198;-77
2021/12/09 11:17:05;;;;;;;0.75;0.75;;;1.90;99.90;;;;;;5251790;28;20055;-77
2021/12/09 11:19:48;;;;;;;0.83;0.83;;;2.00;99.90;;;;;;5261864;28;20063;-76
2021/12/09 11:22:21;;;;;;;0.68;0.68;;;1.90;99.90;;;;;;5255386;28;20296;-77
2021/12/09 11:25:01;;;;;;;0.52;0.52;;;2.00;99.90;;;;;;5259538;28;20055;-76
2021/12/09 11:27:32;;;;;;;0.50;0.50;;;2.00;99.90;;;;;;5260838;28;20164;-76
2021/12/09 11:30:14;;;;;;;0.70;0.70;;;2.00;99.90;;;;;;5263134;28;20043;-75
2021/12/09 11:32:51;;;;;;;0.70;0.70;;;2.00;99.90;;;;;;5254793;28;20212;-77
2021/12/09 11:35:30;;;;;;;0.98;0.98;;;2.10;99.90;;;;;;5264774;28;20030;-75
2021/12/09 11:43:22;;;;;;;0.52;0.52;;;2.20;99.90;;;;;;5257029;28;20032;-76
2021/12/09 11:45:57;;;;;;;0.80;0.80;;;2.10;99.90;;;;;;5261510;28;20031;-77
2021/12/09 11:48:28;;;;;;;0.98;0.98;;;2.10;99.90;;;;;;5256099;28;20055;-76
2021/12/09 11:50:59;;;;;;;0.95;0.95;;;1.90;99.90;;;;;;5254635;28;20032;-76
2021/12/09 11:53:34;;;;;;;1.00;1.00;;;1.90;99.90;;;;;;5247437;28;20058;-76
2021/12/09 11:56:11;;;;;;;0.40;0.40;;;1.90;99.90;;;;;;5242975;28;20024;-76
2021/12/09 11:59:17;;;;;;;2.95;1.98;;;1.70;99.90;;;;;;5233791;28;20048;-76
2021/12/09 12:13:40;;;;;;;0.77;0.77;;;1.70;99.90;;;;;;5260408;28;20083;-75
2021/12/09 12:20:02;;;;;;;1.65;1.27;;;1.70;99.90;;;;;;5244865;28;20102;-76
2021/12/09 12:32:34;;;;;;;0.73;0.73;;;1.60;99.90;;;;;;5260245;28;20258;-76
2021/12/09 12:40:55;;;;;;;1.67;1.58;;;1.50;99.90;;;;;;5268003;28;20205;-76
2021/12/09 12:43:51;;;;;;;0.77;0.77;;;1.50;99.90;;;;;;5275916;28;20049;-76
2021/12/09 12:46:56;;;;;;;0.60;0.60;;;1.50;99.90;;;;;;5278825;28;20059;-75
2021/12/09 12:49:36;;;;;;;1.00;1.00;;;1.60;99.90;;;;;;5254049;28;20283;-76
2021/12/09 12:52:14;;;;;;;0.60;0.60;;;1.60;99.90;;;;;;5273525;28;20036;-76
2021/12/09 12:54:59;;;;;;;0.40;0.40;;;1.70;99.90;;;;;;5265820;28;20055;-77
2021/12/09 12:57:35;;;;;;;1.08;1.08;;;1.70;99.90;;;;;;5239757;28;20304;-76
2021/12/09 13:00:18;;;;;;;1.05;1.05;;;1.70;99.90;;;;;;5259321;28;20039;-76
2021/12/09 13:08:55;;;;;;;1.30;1.30;;;1.70;99.90;;;;;;5271179;28;20020;-78
2021/12/09 13:11:57;;;;;;;0.57;0.57;;;1.70;99.90;;;;;;5255810;28;20039;-77
2021/12/09 13:14:33;;;;;;;0.50;0.50;;;1.70;99.90;;;;;;5249288;28;20055;-75
2021/12/09 13:17:14;;;;;;;0.95;0.95;;;1.70;99.90;;;;;;5249151;28;20257;-76
2021/12/09 13:20:05;;;;;;;1.33;1.33;;;1.70;99.90;;;;;;5252861;28;20087;-77
2021/12/09 13:22:40;;;;;;;0.80;0.80;;;1.50;99.90;;;;;;5260075;28;20040;-75
2021/12/09 13:25:21;;;;;;;0.70;0.70;;;1.40;99.90;;;;;;5261131;28;20042;-76
2021/12/09 13:28:02;;;;;;;0.50;0.50;;;1.30;99.90;;;;;;5263346;28;20027;-76
2021/12/09 13:48:21;;;;;;;1.00;1.00;;;1.00;99.90;;;;;;5217459;28;20032;-78
2021/12/09 13:51:10;;;;;;;0.60;0.60;;;0.90;99.90;;;;;;5228347;28;20281;-75
2021/12/09 13:56:33;;;;;;;0.40;0.40;;;0.90;99.90;;;;;;5304865;27;20415;-78
2021/12/09 13:59:14;;;;;;;2.35;1.42;;;0.90;99.90;;;;;;5306714;27;20045;-77
2021/12/09 14:01:46;;;;;;;0.50;0.50;;;0.80;99.90;;;;;;5308246;27;20340;-80
2021/12/09 14:04:21;;;;;;;0.68;0.68;;;0.80;99.90;;;;;;5296608;28;20028;-77
2021/12/09 14:07:11;;;;;;;;;;;0.80;99.90;;;;;;5293188;28;20432;-78
2021/12/09 14:09:45;;;;;;;1.35;1.25;;;0.80;99.90;;;;;;5288204;28;20000;-78
2021/12/09 14:12:19;;;;;;;0.40;0.40;;;0.80;99.90;;;;;;5283128;28;20046;-76
2021/12/09 14:14:56;;;;;;;0.60;0.60;;;0.80;99.90;;;;;;5293456;28;20409;-77
2021/12/09 14:17:30;;;;;;;0.70;0.70;;;0.90;99.90;;;;;;5281088;28;20362;-76
2021/12/09 14:20:02;;;;;;;1.13;1.13;;;1.00;99.90;;;;;;5297123;28;20049;-78
2021/12/09 14:22:42;;;;;;;1.10;1.10;;;1.00;99.90;;;;;;5267801;28;20333;-77
2021/12/09 14:25:31;;;;;;;0.50;0.50;;;1.00;99.90;;;;;;5280020;28;20031;-79
2021/12/09 14:28:15;;;;;;;0.47;0.47;;;1.00;99.90;;;;;;5287045;28;20027;-77
2021/12/09 14:30:48;;;;;;;0.50;0.50;;;1.00;99.90;;;;;;5272152;28;20035;-79
2021/12/09 14:33:20;;;;;;;0.40;0.40;;;1.00;99.90;;;;;;5271693;28;20090;-79
2021/12/09 14:36:05;;;;;;;0.40;0.40;;;1.00;99.90;;;;;;5268102;27;20415;-79
2021/12/09 14:38:41;;;;;;;0.88;0.88;;;1.00;99.90;;;;;;5292652;27;20050;-77
2021/12/09 14:41:27;;;;;;;1.40;1.30;;;1.00;99.90;;;;;;5237361;28;20101;-77
2021/12/09 14:43:59;;;;;;;0.70;0.70;;;1.00;99.90;;;;;;5264901;28;20027;-79
2021/12/09 14:46:36;;;;;;;0.70;0.70;;;0.90;99.90;;;;;;5263356;28;20095;-78
2021/12/09 14:49:24;;;;;;;0.60;0.60;;;1.00;99.90;;;;;;5256279;28;20310;-77
2021/12/09 14:51:55;;;;;;;1.05;1.05;;;1.10;99.90;;;;;;5242944;28;20043;-77